Time;durP1;ratioP1;P1;durP2;ratioP2;P2;SDS_P1;SDS_P2;PMS_P1;PMS_P2;Temp;Humidity;BMP_temperature;BMP_pressure;BME280_temperature;BME280_humidity;BME280_pressure;Samples;Min_cycle;Max_cycle;Signal;HPM_P1;HPM_P2
2023/06/20 00:00:37;;;;;;;18.95;13.93;;;19.20;99.90;;;;;;5012120;28;20045;-61
2023/06/20 00:03:03;;;;;;;18.75;13.25;;;19.20;99.90;;;;;;5001718;28;20073;-60
2023/06/20 00:05:28;;;;;;;16.67;13.38;;;19.20;99.90;;;;;;5012071;28;20049;-61
2023/06/20 00:07:54;;;;;;;14.82;12.13;;;19.20;99.90;;;;;;5020962;28;20046;-60
2023/06/20 00:10:20;;;;;;;19.08;13.40;;;19.20;99.90;;;;;;5004889;28;20109;-61
2023/06/20 00:12:46;;;;;;;15.25;12.43;;;19.30;99.90;;;;;;5011886;28;20045;-61
2023/06/20 00:15:12;;;;;;;21.08;13.43;;;19.20;99.90;;;;;;5011500;28;20034;-61
2023/06/20 00:17:38;;;;;;;15.63;13.52;;;19.10;99.90;;;;;;5008422;28;20064;-61
2023/06/20 00:20:08;;;;;;;18.90;13.88;;;19.10;99.90;;;;;;5007727;28;20046;-61
2023/06/20 00:22:34;;;;;;;15.30;12.07;;;19.10;99.90;;;;;;5007407;28;20038;-61
2023/06/20 00:25:04;;;;;;;17.27;12.18;;;19.10;99.90;;;;;;5002722;28;20421;-61
2023/06/20 00:27:29;;;;;;;13.73;12.05;;;19.20;99.90;;;;;;5011743;28;20042;-60
2023/06/20 00:29:55;;;;;;;16.33;10.95;;;19.10;99.90;;;;;;4994435;28;20041;-61
2023/06/20 00:32:21;;;;;;;14.10;11.90;;;19.20;99.90;;;;;;5004014;28;20047;-61
2023/06/20 00:34:46;;;;;;;15.90;11.35;;;19.10;99.90;;;;;;5012049;28;20037;-61
2023/06/20 00:37:12;;;;;;;15.52;11.15;;;19.10;99.90;;;;;;5011817;28;20108;-61
2023/06/20 00:39:38;;;;;;;16.77;12.85;;;19.00;99.90;;;;;;5011826;28;20458;-61
2023/06/20 00:42:04;;;;;;;14.32;11.25;;;19.10;99.90;;;;;;5011692;28;20034;-61
2023/06/20 00:44:30;;;;;;;17.83;13.98;;;19.10;99.90;;;;;;5011521;28;20053;-61
2023/06/20 00:46:56;;;;;;;21.08;13.57;;;19.00;99.90;;;;;;4993996;28;20041;-60
2023/06/20 00:49:22;;;;;;;17.35;14.18;;;19.00;99.90;;;;;;5024350;28;20035;-61
2023/06/20 00:51:49;;;;;;;19.50;14.13;;;18.90;99.90;;;;;;5011667;28;20056;-60
2023/06/20 00:54:15;;;;;;;15.32;13.05;;;18.90;99.90;;;;;;5011490;28;20542;-60
2023/06/20 00:56:42;;;;;;;23.05;13.45;;;18.80;99.90;;;;;;5011476;28;20121;-60
2023/06/20 00:59:08;;;;;;;16.73;14.13;;;18.80;99.90;;;;;;5010582;28;20092;-61
2023/06/20 01:01:33;;;;;;;17.67;13.63;;;18.70;99.90;;;;;;5023766;28;20244;-61
2023/06/20 01:04:00;;;;;;;15.43;12.55;;;18.80;99.90;;;;;;5001400;28;20931;-61
2023/06/20 01:06:51;;;;;;;17.75;12.25;;;18.70;99.90;;;;;;5011561;28;20048;-60
2023/06/20 01:09:28;;;;;;;12.25;10.95;;;18.70;99.90;;;;;;4994444;28;20050;-61
2023/06/20 01:12:00;;;;;;;17.67;12.63;;;18.70;99.90;;;;;;4993943;28;20087;-61
2023/06/20 01:14:57;;;;;;;15.30;12.60;;;18.70;99.90;;;;;;5011330;28;20053;-61
2023/06/20 01:17:33;;;;;;;18.65;12.23;;;18.60;99.90;;;;;;5011532;28;20046;-61
2023/06/20 01:20:10;;;;;;;17.40;12.90;;;18.70;99.90;;;;;;5011256;28;20050;-60
2023/06/20 01:22:42;;;;;;;12.77;11.27;;;18.70;99.90;;;;;;5021771;28;20053;-60
2023/06/20 01:25:46;;;;;;;15.25;13.50;;;18.70;99.90;;;;;;5003009;28;20084;-60
2023/06/20 01:28:56;;;;;;;14.27;11.73;;;18.60;99.90;;;;;;4953837;28;20470;-61
2023/06/20 01:31:47;;;;;;;15.32;11.70;;;18.60;99.90;;;;;;4892557;29;20049;-60
2023/06/20 01:34:18;;;;;;;13.73;11.77;;;18.60;99.90;;;;;;4893825;29;20400;-60
2023/06/20 01:37:07;;;;;;;18.48;11.57;;;18.60;99.90;;;;;;4897396;29;20056;-60
2023/06/20 01:39:50;;;;;;;18.77;11.50;;;18.60;99.90;;;;;;4895460;29;20201;-61
2023/06/20 01:42:19;;;;;;;13.15;10.88;;;18.60;99.90;;;;;;4893253;29;20146;-60
2023/06/20 01:44:46;;;;;;;13.65;10.98;;;18.50;99.90;;;;;;4881405;29;20053;-61
2023/06/20 01:47:14;;;;;;;14.73;11.05;;;18.60;99.90;;;;;;4890504;29;20045;-60
2023/06/20 01:49:42;;;;;;;13.95;10.88;;;18.60;99.90;;;;;;4894707;29;20132;-60
2023/06/20 01:52:10;;;;;;;14.57;10.70;;;18.50;99.90;;;;;;4897069;29;20131;-60
2023/06/20 01:54:37;;;;;;;13.87;11.00;;;18.50;99.90;;;;;;4912548;29;20048;-60
2023/06/20 01:57:04;;;;;;;11.73;10.25;;;18.50;99.90;;;;;;4896881;29;20123;-60
2023/06/20 01:59:30;;;;;;;14.30;11.32;;;18.50;99.90;;;;;;4896626;29;20059;-60
2023/06/20 02:01:58;;;;;;;14.50;11.35;;;18.50;99.90;;;;;;4892564;29;20060;-60
2023/06/20 02:04:26;;;;;;;16.45;10.73;;;18.50;99.90;;;;;;4899972;29;20052;-60
2023/06/20 02:06:52;;;;;;;17.70;11.82;;;18.50;99.90;;;;;;4915456;29;20052;-59
2023/06/20 02:09:18;;;;;;;13.73;10.70;;;18.40;99.90;;;;;;5011858;28;20122;-60
2023/06/20 02:11:46;;;;;;;14.40;10.90;;;18.40;99.90;;;;;;5014054;28;20376;-60
2023/06/20 02:14:13;;;;;;;14.55;11.52;;;18.40;99.90;;;;;;4996462;28;20058;-60
2023/06/20 02:16:42;;;;;;;13.67;9.77;;;18.40;99.90;;;;;;5005747;28;20046;-60
2023/06/20 02:19:08;;;;;;;14.93;11.10;;;18.50;99.90;;;;;;4994422;28;20612;-60
2023/06/20 02:21:37;;;;;;;14.57;10.57;;;18.40;99.90;;;;;;4986650;28;20038;-60
2023/06/20 02:24:05;;;;;;;12.82;9.90;;;18.50;99.90;;;;;;5013598;28;20038;-60
2023/06/20 02:26:32;;;;;;;14.73;9.87;;;18.50;99.90;;;;;;4993510;28;20073;-60
2023/06/20 02:28:59;;;;;;;11.40;9.65;;;18.50;99.90;;;;;;5023814;28;20108;-60
2023/06/20 02:31:30;;;;;;;11.52;9.10;;;18.50;99.90;;;;;;5013185;28;20092;-60
2023/06/20 02:33:58;;;;;;;15.38;11.07;;;18.60;99.90;;;;;;4977021;28;20038;-60
2023/06/20 02:36:26;;;;;;;13.63;9.73;;;18.50;99.90;;;;;;4994295;28;20092;-60
2023/06/20 02:38:57;;;;;;;23.63;10.43;;;18.50;99.90;;;;;;4993061;28;20854;-60
2023/06/20 02:41:23;;;;;;;13.93;9.88;;;18.50;99.90;;;;;;4994136;28;20177;-60
2023/06/20 02:43:49;;;;;;;13.23;10.15;;;18.50;99.90;;;;;;4993893;28;20109;-60
2023/06/20 02:46:41;;;;;;;12.90;10.07;;;18.50;99.90;;;;;;4976500;28;20050;-60
2023/06/20 02:49:22;;;;;;;16.73;11.18;;;18.50;99.90;;;;;;4993780;28;20042;-60
2023/06/20 02:52:05;;;;;;;15.07;10.63;;;18.50;99.90;;;;;;4993856;28;20196;-60
2023/06/20 02:54:51;;;;;;;17.70;10.60;;;18.50;99.90;;;;;;4993946;28;20042;-59
2023/06/20 02:57:20;;;;;;;12.45;9.68;;;18.40;99.90;;;;;;4971798;28;20043;-60
2023/06/20 02:59:48;;;;;;;;;;;18.40;99.90;;;;;;4972513;28;20059;-60
2023/06/20 03:02:17;;;;;;;12.50;11.13;;;18.40;99.90;;;;;;4972086;28;20371;-60
2023/06/20 03:04:46;;;;;;;13.60;10.25;;;18.40;99.90;;;;;;4972066;28;20166;-60
2023/06/20 03:07:13;;;;;;;13.05;9.73;;;18.40;99.90;;;;;;4972277;28;20039;-59
2023/06/20 03:09:40;;;;;;;13.63;11.57;;;18.30;99.90;;;;;;4972021;28;20988;-60
2023/06/20 03:12:07;;;;;;;13.65;10.15;;;18.20;99.90;;;;;;4971608;28;20110;-61
2023/06/20 03:14:33;;;;;;;11.82;10.43;;;18.30;99.90;;;;;;4972066;28;20406;-59
2023/06/20 03:16:59;;;;;;;14.45;10.85;;;18.20;99.90;;;;;;4955991;28;20104;-60
2023/06/20 03:19:25;;;;;;;16.10;11.07;;;18.20;99.90;;;;;;4967333;28;20070;-59
2023/06/20 03:21:51;;;;;;;15.25;11.02;;;18.20;99.90;;;;;;4971579;28;20082;-60
2023/06/20 03:24:16;;;;;;;13.60;10.52;;;18.10;99.90;;;;;;4971684;28;20093;-59
2023/06/20 03:26:42;;;;;;;13.40;10.50;;;18.20;99.90;;;;;;4971451;28;20046;-59
2023/06/20 03:29:08;;;;;;;13.95;11.30;;;18.20;99.90;;;;;;4971521;28;20503;-59
2023/06/20 03:31:34;;;;;;;16.52;11.35;;;18.20;99.90;;;;;;4971570;28;20046;-60
2023/06/20 03:33:59;;;;;;;14.15;11.80;;;18.20;99.90;;;;;;4962543;28;20086;-59
2023/06/20 03:36:25;;;;;;;11.57;10.35;;;18.10;99.90;;;;;;4992937;28;20061;-60
2023/06/20 03:38:51;;;;;;;12.63;9.82;;;18.20;99.90;;;;;;4992856;28;20042;-60
2023/06/20 03:41:16;;;;;;;14.05;10.18;;;18.20;99.90;;;;;;4992659;28;20030;-60
2023/06/20 03:43:42;;;;;;;12.38;10.25;;;18.20;99.90;;;;;;4992545;28;20473;-60
2023/06/20 03:46:07;;;;;;;16.08;10.40;;;18.20;99.90;;;;;;4992859;28;20117;-60
2023/06/20 03:48:33;;;;;;;11.85;10.07;;;18.20;99.90;;;;;;4992721;28;20046;-60
2023/06/20 03:50:59;;;;;;;17.50;10.63;;;18.20;99.90;;;;;;4992423;28;20042;-60
2023/06/20 03:53:24;;;;;;;15.63;9.82;;;18.20;99.90;;;;;;4993099;28;20038;-60
2023/06/20 03:55:50;;;;;;;14.50;10.13;;;18.20;99.90;;;;;;4978729;28;20765;-60
2023/06/20 03:58:15;;;;;;;13.48;10.00;;;18.20;99.90;;;;;;4993280;28;20034;-60
2023/06/20 04:00:41;;;;;;;12.98;10.32;;;18.20;99.90;;;;;;4992774;28;20042;-60
2023/06/20 04:03:07;;;;;;;11.30;9.52;;;18.20;99.90;;;;;;4992535;28;20034;-60
2023/06/20 04:05:33;;;;;;;11.20;10.00;;;18.30;99.90;;;;;;4992539;28;20370;-60
2023/06/20 04:08:00;;;;;;;13.20;9.45;;;18.30;99.90;;;;;;4992361;28;20039;-60
2023/06/20 04:10:27;;;;;;;14.27;10.50;;;18.40;99.90;;;;;;4992354;28;20464;-60
2023/06/20 04:12:52;;;;;;;14.90;10.45;;;18.40;99.90;;;;;;4975270;28;20294;-60
2023/06/20 04:15:18;;;;;;;13.93;10.55;;;18.30;99.90;;;;;;4992836;28;20038;-60
2023/06/20 04:17:45;;;;;;;14.15;10.18;;;18.40;99.90;;;;;;4992579;28;20047;-60
2023/06/20 04:20:14;;;;;;;13.98;10.65;;;18.40;99.90;;;;;;4992227;28;20052;-60
2023/06/20 04:22:45;;;;;;;;;;;18.50;99.90;;;;;;4992836;28;20038;-60
2023/06/20 04:25:15;;;;;;;12.90;10.52;;;18.50;99.90;;;;;;4992409;28;19961;-60
2023/06/20 04:27:41;;;;;;;13.73;10.43;;;18.60;99.90;;;;;;4992215;28;20053;-60
2023/06/20 04:30:07;;;;;;;13.35;9.65;;;18.60;99.90;;;;;;4991920;28;20508;-60
2023/06/20 04:32:33;;;;;;;14.20;10.88;;;18.70;99.90;;;;;;4992531;28;20122;-60
2023/06/20 04:34:58;;;;;;;12.18;10.48;;;18.70;99.90;;;;;;4992359;28;20046;-60
2023/06/20 04:37:24;;;;;;;13.32;10.30;;;18.70;99.90;;;;;;4992050;28;20362;-60
2023/06/20 04:39:50;;;;;;;12.98;9.77;;;18.70;99.90;;;;;;4992186;28;20042;-60
2023/06/20 04:42:16;;;;;;;12.80;9.55;;;18.80;99.90;;;;;;4992191;28;20351;-60
2023/06/20 04:44:44;;;;;;;13.10;10.20;;;18.80;99.90;;;;;;4974914;28;20394;-60
2023/06/20 04:47:12;;;;;;;11.23;10.02;;;18.90;99.90;;;;;;4991936;28;20054;-60
2023/06/20 04:49:40;;;;;;;13.00;9.63;;;18.90;99.90;;;;;;4990952;28;20034;-60
2023/06/20 04:52:06;;;;;;;13.13;10.38;;;18.90;99.90;;;;;;4974527;28;20037;-60
2023/06/20 04:54:32;;;;;;;13.50;10.60;;;18.90;99.90;;;;;;4991989;28;20046;-60
2023/06/20 04:56:57;;;;;;;12.93;9.77;;;18.90;99.90;;;;;;4992199;28;20417;-60
2023/06/20 04:59:23;;;;;;;11.85;9.13;;;19.00;99.90;;;;;;4974357;28;20046;-59
2023/06/20 05:01:51;;;;;;;13.85;9.57;;;18.90;99.90;;;;;;4992757;28;20436;-60
2023/06/20 05:04:17;;;;;;;12.63;10.25;;;19.00;99.90;;;;;;4995518;28;20050;-60
2023/06/20 05:06:46;;;;;;;10.95;9.38;;;19.00;99.90;;;;;;4995364;28;20038;-60
2023/06/20 05:09:12;;;;;;;11.15;9.50;;;19.00;99.90;;;;;;4995718;28;20042;-59
2023/06/20 05:11:37;;;;;;;11.57;9.63;;;19.00;99.90;;;;;;4995510;28;20097;-60
2023/06/20 05:14:03;;;;;;;14.40;9.95;;;19.00;99.90;;;;;;4994797;28;20047;-60
2023/06/20 05:16:28;;;;;;;13.77;11.02;;;19.00;99.90;;;;;;4995117;28;20038;-60
2023/06/20 05:18:54;;;;;;;16.35;11.93;;;19.00;99.90;;;;;;4995332;28;20034;-59
2023/06/20 05:21:20;;;;;;;13.43;9.95;;;19.10;99.90;;;;;;4995372;28;20113;-60
2023/06/20 05:23:45;;;;;;;13.02;9.98;;;19.00;99.90;;;;;;4999745;28;20481;-60
2023/06/20 05:26:11;;;;;;;15.48;10.82;;;19.10;99.90;;;;;;4999154;28;20050;-60
2023/06/20 05:28:37;;;;;;;13.10;10.88;;;19.10;99.90;;;;;;4997344;28;20043;-60
2023/06/20 05:31:03;;;;;;;14.77;10.25;;;19.20;99.90;;;;;;4994938;28;20101;-60
2023/06/20 05:33:29;;;;;;;16.73;10.93;;;19.20;99.90;;;;;;5009861;28;20042;-59
2023/06/20 05:35:55;;;;;;;15.18;10.55;;;19.20;99.90;;;;;;5010039;28;20042;-60
2023/06/20 05:38:20;;;;;;;11.43;10.25;;;19.30;99.90;;;;;;4995017;28;20041;-59
2023/06/20 05:40:46;;;;;;;15.02;11.57;;;19.30;99.90;;;;;;5016507;28;20397;-60
2023/06/20 05:43:11;;;;;;;17.75;12.10;;;19.20;99.90;;;;;;4994648;28;20038;-60
2023/06/20 05:45:37;;;;;;;17.77;11.52;;;19.30;99.90;;;;;;4992891;28;20501;-59
2023/06/20 05:48:03;;;;;;;15.65;11.07;;;19.30;99.90;;;;;;5005206;28;20026;-60
2023/06/20 05:50:30;;;;;;;16.52;11.55;;;19.30;99.90;;;;;;4995158;28;20097;-60
2023/06/20 05:52:56;;;;;;;14.88;10.35;;;19.30;99.90;;;;;;4994668;28;20070;-60
2023/06/20 05:55:22;;;;;;;14.70;10.70;;;19.30;99.90;;;;;;4977232;28;20069;-60
2023/06/20 05:57:47;;;;;;;16.85;11.02;;;19.30;99.90;;;;;;4994920;28;20038;-60
2023/06/20 06:00:13;;;;;;;14.32;10.63;;;19.40;99.90;;;;;;4994597;28;20527;-60
2023/06/20 06:02:40;;;;;;;17.45;11.02;;;19.40;99.90;;;;;;4994531;28;20409;-61
2023/06/20 06:05:06;;;;;;;14.00;10.60;;;19.40;99.90;;;;;;4994407;28;20035;-60
2023/06/20 06:07:32;;;;;;;14.07;11.73;;;19.50;99.90;;;;;;4977040;28;20054;-60
2023/06/20 06:09:57;;;;;;;21.02;11.85;;;19.50;99.90;;;;;;4994549;28;20031;-60
2023/06/20 06:12:23;;;;;;;14.90;12.43;;;19.50;99.90;;;;;;4994100;28;20482;-60
2023/06/20 06:14:51;;;;;;;19.52;12.25;;;19.50;99.90;;;;;;4994604;28;20388;-60
2023/06/20 06:17:17;;;;;;;16.10;11.60;;;19.50;99.90;;;;;;4994444;28;20071;-60
2023/06/20 06:19:43;;;;;;;19.30;12.40;;;19.50;99.90;;;;;;4977952;28;20502;-60
2023/06/20 06:22:09;;;;;;;18.55;12.25;;;19.50;99.90;;;;;;5008683;28;20853;-60
2023/06/20 06:24:35;;;;;;;14.90;12.27;;;19.60;99.90;;;;;;5009401;28;20085;-60
2023/06/20 06:27:00;;;;;;;18.15;12.40;;;19.60;99.90;;;;;;5008520;28;20425;-60
2023/06/20 06:29:26;;;;;;;24.08;12.57;;;19.60;99.90;;;;;;4994526;28;20400;-60
2023/06/20 06:31:54;;;;;;;16.33;12.95;;;19.70;99.90;;;;;;4976877;28;20084;-59
2023/06/20 06:34:20;;;;;;;14.30;12.48;;;19.70;99.90;;;;;;4976525;28;20057;-60
2023/06/20 06:36:48;;;;;;;15.70;11.93;;;19.80;99.90;;;;;;4994032;28;20038;-60
2023/06/20 06:39:16;;;;;;;12.93;11.60;;;19.90;99.90;;;;;;4994122;28;20046;-61
2023/06/20 06:41:44;;;;;;;14.45;11.52;;;20.10;99.90;;;;;;5008722;28;20081;-59
2023/06/20 06:44:10;;;;;;;16.90;11.90;;;20.20;99.90;;;;;;4993309;28;20034;-60
2023/06/20 06:46:36;;;;;;;16.08;12.60;;;20.20;99.90;;;;;;5008953;28;20046;-59
2023/06/20 06:49:02;;;;;;;24.48;13.38;;;20.20;99.90;;;;;;4976491;28;20053;-60
2023/06/20 06:51:29;;;;;;;17.83;12.40;;;20.30;99.90;;;;;;4994021;28;20038;-60
2023/06/20 06:53:55;;;;;;;16.58;13.13;;;20.40;99.90;;;;;;4993345;28;20046;-59
2023/06/20 06:56:20;;;;;;;20.40;12.68;;;20.50;99.90;;;;;;4993528;28;20444;-60
2023/06/20 06:58:46;;;;;;;15.48;12.02;;;20.50;99.90;;;;;;4976248;28;20439;-61
2023/06/20 07:01:11;;;;;;;18.17;13.27;;;20.50;99.90;;;;;;4996636;28;20046;-61
2023/06/20 07:03:37;;;;;;;16.48;12.13;;;20.60;99.90;;;;;;5008402;28;20034;-60
2023/06/20 07:06:03;;;;;;;16.20;11.82;;;20.60;99.90;;;;;;4993580;28;20117;-60
2023/06/20 07:08:29;;;;;;;17.55;12.75;;;20.70;99.90;;;;;;5008568;28;20046;-60
2023/06/20 07:10:55;;;;;;;13.45;12.05;;;20.60;99.90;;;;;;4992847;28;20382;-61
2023/06/20 07:13:23;;;;;;;19.30;12.20;;;20.70;99.90;;;;;;4979788;28;20042;-59
2023/06/20 07:15:49;;;;;;;15.13;11.65;;;20.80;99.90;;;;;;5006718;28;20045;-60
2023/06/20 07:18:14;;;;;;;13.90;11.52;;;20.80;99.90;;;;;;5003721;28;20045;-60
2023/06/20 07:20:40;;;;;;;15.05;11.68;;;21.00;99.90;;;;;;5011825;28;20035;-59
2023/06/20 07:23:06;;;;;;;14.23;10.82;;;21.10;99.90;;;;;;5003521;28;20120;-60
2023/06/20 07:25:31;;;;;;;15.65;11.60;;;21.10;99.90;;;;;;4997291;28;20049;-60
2023/06/20 07:27:57;;;;;;;13.52;10.43;;;21.20;99.90;;;;;;5001584;28;20435;-63
2023/06/20 07:30:23;;;;;;;18.10;10.73;;;21.30;99.90;;;;;;5012453;28;20030;-60
2023/06/20 07:32:49;;;;;;;15.18;11.52;;;21.40;99.90;;;;;;5006538;28;20041;-60
2023/06/20 07:35:17;;;;;;;11.98;10.60;;;21.50;99.90;;;;;;5003967;28;20042;-60
2023/06/20 07:37:43;;;;;;;16.75;10.85;;;21.50;99.90;;;;;;4997353;28;20061;-60
2023/06/20 07:40:10;;;;;;;14.05;10.65;;;21.50;99.90;;;;;;4997302;28;20046;-60
2023/06/20 07:42:36;;;;;;;12.20;10.88;;;21.50;99.90;;;;;;4998970;28;20034;-60
2023/06/20 07:45:02;;;;;;;15.68;10.40;;;21.50;99.90;;;;;;4996756;28;20050;-60
2023/06/20 07:47:28;;;;;;;13.57;11.02;;;21.60;99.90;;;;;;4976800;28;20101;-60
2023/06/20 07:49:54;;;;;;;11.30;9.68;;;21.70;99.90;;;;;;5012594;28;20104;-61
2023/06/20 07:52:21;;;;;;;21.75;10.60;;;21.90;99.90;;;;;;5005146;28;20038;-60
2023/06/20 07:54:47;;;;;;;14.32;10.80;;;22.00;99.90;;;;;;4996353;28;20042;-60
2023/06/20 07:57:19;;;;;;;11.38;10.02;;;22.20;99.90;;;;;;4995803;28;20088;-60
2023/06/20 07:59:45;;;;;;;11.52;10.18;;;22.40;99.90;;;;;;4993046;28;20064;-60
2023/06/20 08:02:10;;;;;;;12.82;10.20;;;22.40;99.90;;;;;;4993619;28;20499;-60
2023/06/20 08:04:36;;;;;;;14.25;10.48;;;22.50;99.90;;;;;;4992742;28;20045;-59
2023/06/20 08:07:01;;;;;;;13.50;10.77;;;22.70;99.90;;;;;;5007920;28;20409;-59
2023/06/20 08:09:27;;;;;;;12.45;9.93;;;22.80;99.90;;;;;;4992404;28;20507;-59
2023/06/20 08:11:53;;;;;;;10.50;9.35;;;23.00;99.90;;;;;;4992162;28;20038;-59
2023/06/20 08:14:19;;;;;;;13.30;9.25;;;23.10;99.90;;;;;;4992641;28;20429;-60
2023/06/20 08:16:44;;;;;;;14.30;8.93;;;23.10;99.90;;;;;;4992437;28;20484;-60
2023/06/20 08:19:10;;;;;;;11.10;9.90;;;23.30;99.90;;;;;;4992988;28;20086;-60
2023/06/20 08:21:37;;;;;;;11.02;9.30;;;23.50;99.90;;;;;;4993196;28;20038;-60
2023/06/20 08:24:04;;;;;;;11.43;9.70;;;23.70;99.90;;;;;;4992651;28;20047;-59
2023/06/20 08:26:29;;;;;;;9.80;8.85;;;24.00;99.90;;;;;;4992720;28;20043;-61
2023/06/20 08:28:55;;;;;;;11.50;9.52;;;24.30;99.90;;;;;;4991479;28;20049;-60
2023/06/20 08:31:21;;;;;;;13.05;8.80;;;24.30;99.90;;;;;;4992068;28;20102;-60
2023/06/20 08:33:47;;;;;;;11.02;9.85;;;24.40;99.90;;;;;;4992374;28;20038;-60
2023/06/20 08:36:13;;;;;;;11.43;10.20;;;24.20;99.90;;;;;;4998764;28;20038;-61
2023/06/20 08:38:39;;;;;;;13.63;10.68;;;24.10;99.90;;;;;;4996053;28;20622;-60
2023/06/20 08:41:13;;;;;;;11.90;9.07;;;24.00;99.90;;;;;;4996725;28;20073;-60
2023/06/20 08:43:39;;;;;;;9.63;8.55;;;24.00;99.90;;;;;;4995841;28;20049;-60
2023/06/20 08:46:05;;;;;;;16.23;9.13;;;24.10;99.90;;;;;;4996981;28;20030;-60
2023/06/20 08:48:30;;;;;;;12.50;9.98;;;24.10;99.90;;;;;;4996148;28;20050;-60
2023/06/20 08:50:56;;;;;;;10.73;9.82;;;24.10;99.90;;;;;;4995773;28;20042;-61
2023/06/20 08:53:23;;;;;;;11.05;9.95;;;24.00;99.90;;;;;;4996315;28;20034;-60
2023/06/20 08:55:51;;;;;;;11.45;9.55;;;23.80;99.90;;;;;;4996559;28;20039;-60
2023/06/20 08:58:16;;;;;;;10.52;9.40;;;23.80;99.90;;;;;;4995585;28;20049;-60
2023/06/20 09:00:45;;;;;;;11.20;9.73;;;23.60;99.90;;;;;;4996373;28;20046;-60
2023/06/20 09:03:11;;;;;;;9.95;8.98;;;23.80;99.90;;;;;;4996433;28;20042;-60
2023/06/20 09:05:45;;;;;;;11.38;9.43;;;24.00;99.90;;;;;;4996429;28;20048;-60
2023/06/20 09:08:16;;;;;;;11.45;9.70;;;24.20;99.90;;;;;;4979040;28;20128;-61
2023/06/20 09:10:42;;;;;;;11.20;8.75;;;24.30;99.90;;;;;;4996386;28;20038;-60
2023/06/20 09:13:11;;;;;;;12.18;9.95;;;24.50;99.90;;;;;;4997171;28;20054;-60
2023/06/20 09:15:38;;;;;;;;;;;24.70;99.90;;;;;;4996306;28;20548;-61
2023/06/20 09:18:06;;;;;;;12.65;9.10;;;24.90;99.90;;;;;;4995983;28;19961;-60
2023/06/20 09:20:32;;;;;;;;;;;25.20;99.90;;;;;;4996230;28;20082;-60
2023/06/20 09:22:59;;;;;;;11.00;9.60;;;25.40;99.90;;;;;;4978337;28;19976;-60
2023/06/20 09:25:26;;;;;;;14.50;9.82;;;25.50;99.90;;;;;;4995229;28;20084;-61
2023/06/20 09:27:53;;;;;;;11.55;9.48;;;25.40;99.90;;;;;;4995972;28;20042;-61
2023/06/20 09:30:19;;;;;;;10.15;8.50;;;25.50;99.90;;;;;;4995460;28;20038;-60
2023/06/20 09:32:48;;;;;;;8.50;7.60;;;26.20;99.90;;;;;;4996282;28;20392;-61
2023/06/20 09:35:14;;;;;;;13.00;8.35;;;26.60;99.90;;;;;;4994177;28;20053;-61
2023/06/20 09:37:47;;;;;;;10.57;9.40;;;26.40;99.90;;;;;;4995184;28;20125;-60
2023/06/20 09:40:18;;;;;;;12.18;8.38;;;26.30;99.90;;;;;;4995021;28;20101;-61
2023/06/20 09:42:45;;;;;;;9.80;7.60;;;26.40;99.90;;;;;;4994105;28;20042;-61
2023/06/20 09:45:13;;;;;;;10.45;7.68;;;26.60;99.90;;;;;;4995570;28;20035;-61
2023/06/20 09:47:40;;;;;;;8.50;7.63;;;26.50;99.90;;;;;;4994202;28;20057;-61
2023/06/20 09:50:13;;;;;;;9.48;6.93;;;26.40;99.90;;;;;;4995568;28;20088;-61
2023/06/20 09:53:02;;;;;;;10.82;7.43;;;26.80;99.90;;;;;;5010477;28;20042;-61
2023/06/20 09:55:32;;;;;;;7.82;6.28;;;27.50;99.90;;;;;;5010915;28;20471;-61
2023/06/20 09:57:59;;;;;;;8.82;6.70;;;28.60;99.90;;;;;;4995619;28;20038;-61
2023/06/20 10:00:27;;;;;;;6.88;6.28;;;29.30;99.90;;;;;;4994905;28;20045;-60
2023/06/20 10:02:53;;;;;;;7.70;5.95;;;29.80;99.90;;;;;;4995192;28;20509;-61
2023/06/20 10:05:21;;;;;;;9.32;6.53;;;30.20;99.90;;;;;;4995379;28;20035;-61
2023/06/20 10:07:49;;;;;;;8.63;6.70;;;30.30;99.90;;;;;;5010400;28;20056;-61
2023/06/20 10:10:16;;;;;;;8.75;6.78;;;30.10;99.90;;;;;;4995396;28;20540;-61
2023/06/20 10:12:44;;;;;;;8.00;6.72;;;29.60;99.90;;;;;;4995446;28;20129;-61
2023/06/20 10:15:14;;;;;;;8.20;7.05;;;30.20;99.90;;;;;;4994957;28;20485;-62
2023/06/20 10:17:46;;;;;;;9.40;5.75;;;30.20;99.90;;;;;;4994550;28;20057;-61
2023/06/20 10:20:26;;;;;;;6.65;5.32;;;30.20;99.90;;;;;;4994615;28;20366;-61
2023/06/20 10:22:54;;;;;;;7.25;5.88;;;31.00;99.90;;;;;;4994538;28;20042;-61
2023/06/20 10:25:20;;;;;;;7.72;7.05;;;31.00;99.90;;;;;;5009383;28;20039;-62
2023/06/20 10:28:03;;;;;;;9.90;6.28;;;30.80;99.90;;;;;;4994016;28;20042;-61
2023/06/20 10:30:49;;;;;;;7.60;6.38;;;31.00;99.90;;;;;;4994753;28;20088;-61
2023/06/20 10:33:22;;;;;;;10.00;6.38;;;31.40;99.90;;;;;;4976564;28;20046;-61
2023/06/20 10:36:05;;;;;;;6.53;5.10;;;31.30;99.90;;;;;;4994107;28;20039;-61
2023/06/20 10:38:38;;;;;;;7.05;6.35;;;32.00;99.90;;;;;;4994364;28;20433;-61
2023/06/20 10:41:12;;;;;;;6.90;5.90;;;32.00;99.90;;;;;;4994187;28;20061;-62
2023/06/20 10:43:53;;;;;;;6.60;6.10;;;31.80;99.90;;;;;;4993956;28;20440;-61
2023/06/20 10:46:28;;;;;;;5.72;5.07;;;31.70;99.90;;;;;;4994691;28;20049;-61
2023/06/20 10:48:54;;;;;;;7.22;5.97;;;31.90;99.90;;;;;;4993935;28;20077;-60
2023/06/20 10:51:20;;;;;;;7.10;4.70;;;32.30;99.90;;;;;;4993530;28;20034;-61
2023/06/20 10:53:46;;;;;;;9.63;6.07;;;32.70;99.90;;;;;;5003497;28;20140;-61
2023/06/20 10:56:25;;;;;;;9.95;6.07;;;32.30;99.90;;;;;;4997542;28;20046;-61
2023/06/20 10:58:50;;;;;;;;;;;32.40;99.50;;;;;;4993098;28;20113;-61
2023/06/20 11:01:18;;;;;;;5.18;4.55;;;32.10;99.30;;;;;;4992915;28;20390;-61
2023/06/20 11:03:45;;;;;;;;;;;32.10;99.60;;;;;;4993788;28;20049;-61
2023/06/20 11:06:18;;;;;;;6.85;5.47;;;32.20;99.90;;;;;;4994819;28;19918;-61
2023/06/20 11:08:47;;;;;;;7.13;4.82;;;32.00;99.60;;;;;;4993817;28;20203;-61
2023/06/20 11:11:13;;;;;;;5.05;4.55;;;32.00;99.90;;;;;;4993362;28;20034;-62
2023/06/20 11:13:40;;;;;;;5.13;4.60;;;32.70;99.90;;;;;;4993433;28;20074;-61
2023/06/20 11:16:06;;;;;;;5.80;5.30;;;32.90;99.60;;;;;;4975737;28;20396;-62
2023/06/20 11:18:33;;;;;;;5.93;5.30;;;32.70;99.40;;;;;;4993152;28;20034;-61
2023/06/20 11:20:59;;;;;;;5.50;4.60;;;32.10;99.30;;;;;;4993771;28;20496;-62
2023/06/20 11:23:34;;;;;;;8.38;5.50;;;32.20;99.60;;;;;;4993763;28;20049;-62
2023/06/20 11:26:00;;;;;;;6.93;4.68;;;32.10;99.60;;;;;;4993102;28;20045;-61
2023/06/20 11:28:26;;;;;;;6.95;6.25;;;32.40;99.90;;;;;;4992684;28;20042;-60
2023/06/20 11:30:52;;;;;;;8.45;5.47;;;32.70;99.60;;;;;;4993381;28;20042;-61
2023/06/20 11:33:18;;;;;;;6.13;4.95;;;32.80;99.60;;;;;;4993205;28;20982;-61
2023/06/20 11:35:54;;;;;;;5.57;5.07;;;32.80;99.60;;;;;;4992941;28;20042;-61
2023/06/20 11:38:22;;;;;;;6.95;5.10;;;32.80;99.30;;;;;;4996478;28;20089;-61
2023/06/20 11:41:03;;;;;;;5.40;4.90;;;32.80;99.00;;;;;;4992762;28;20485;-61
2023/06/20 11:43:34;;;;;;;7.75;5.43;;;32.90;98.90;;;;;;4992918;28;20042;-61
2023/06/20 11:46:00;;;;;;;6.40;4.97;;;33.10;98.60;;;;;;4991969;28;20061;-62
2023/06/20 11:48:28;;;;;;;7.00;5.28;;;32.80;99.10;;;;;;4992775;28;20042;-61
2023/06/20 11:51:04;;;;;;;8.43;5.13;;;32.90;99.40;;;;;;4992631;28;20129;-61
2023/06/20 11:53:35;;;;;;;6.00;4.68;;;33.30;99.20;;;;;;4992698;28;20049;-61
2023/06/20 11:56:04;;;;;;;5.43;4.65;;;33.70;99.20;;;;;;4992731;28;20054;-62
2023/06/20 11:58:38;;;;;;;4.35;4.03;;;33.20;99.00;;;;;;4992648;28;20096;-61
2023/06/20 12:01:25;;;;;;;6.32;5.72;;;33.20;98.70;;;;;;4976669;28;20050;-61
2023/06/20 12:04:06;;;;;;;10.60;4.93;;;33.10;98.60;;;;;;4975608;28;20101;-61
2023/06/20 12:06:36;;;;;;;9.43;4.60;;;32.50;98.80;;;;;;4992994;28;20042;-61
2023/06/20 12:09:08;;;;;;;4.82;4.30;;;32.60;99.10;;;;;;4992730;28;20049;-61
2023/06/20 12:11:38;;;;;;;8.10;4.60;;;32.30;98.70;;;;;;4992307;28;20042;-61
2023/06/20 12:14:03;;;;;;;5.20;4.70;;;32.30;99.20;;;;;;4992652;28;20516;-61
2023/06/20 12:16:31;;;;;;;5.65;4.50;;;32.10;99.10;;;;;;4977331;28;20049;-66
2023/06/20 12:18:59;;;;;;;4.75;4.35;;;32.20;99.10;;;;;;4978285;28;20048;-65
2023/06/20 12:21:25;;;;;;;6.28;4.88;;;31.90;99.50;;;;;;4995337;28;20077;-66
2023/06/20 12:23:51;;;;;;;5.57;5.07;;;31.90;99.30;;;;;;4995582;28;20074;-65
2023/06/20 12:26:17;;;;;;;4.95;4.47;;;31.80;99.60;;;;;;4995780;28;20481;-61
2023/06/20 12:28:43;;;;;;;6.38;5.10;;;31.70;99.90;;;;;;4992990;28;20053;-61
2023/06/20 12:31:09;;;;;;;5.07;4.57;;;32.30;99.90;;;;;;4993636;28;20113;-61
2023/06/20 12:33:34;;;;;;;4.78;4.38;;;32.20;99.80;;;;;;4993504;28;20046;-62
2023/06/20 12:36:00;;;;;;;12.15;4.70;;;32.30;99.80;;;;;;4994429;28;20054;-62
2023/06/20 12:38:26;;;;;;;5.30;4.35;;;32.20;99.40;;;;;;4994440;28;20042;-61
2023/06/20 12:40:52;;;;;;;7.57;5.72;;;32.30;99.00;;;;;;4991839;28;20050;-62